High Point, NC

12:26 PM EDT on March 28, 2017 (GMT -0400)
Ambasador Town Homes | | Change Station

Elev 846 ft 35.99 °N, 79.99 °W | Updated 1 minute ago

Partly Cloudy
Partly Cloudy
74.4 °F
Feels Like 76 °F
N
3.0
Wind Variable Wind from SW

Today
High -- | Low -- °F
--% Chance of Precip.
Yesterday
High -- | Low -- °F
Precip. -- in
Pressure 29.91 in
Visibility 10.0 miles
Clouds Scattered Clouds 2000 ft
Mostly Cloudy 9000 ft
Mostly Cloudy 15000 ft
Mostly Cloudy 25000 ft
Heat Index 76 °F
Dew Point 63 °F
Humidity 68%
Rainfall 0.33 in
Snow Depth Not available.
7:11 AM 7:38 PM
New Moon, 0% visible
METAR KGSO 281554Z 30009KT 10SM SCT020 BKN090 BKN150 BKN250 20/15 A2993 RMK AO2 SLP129 T02000150
Pressure 29.91 in
Visibility 10.0 miles
Clouds Scattered Clouds 2000 ft
Mostly Cloudy 9000 ft
Mostly Cloudy 15000 ft
Mostly Cloudy 25000 ft
Heat Index 76 °F
Dew Point 63 °F
Humidity 68%
Rainfall 0.33 in
Snow Depth Not available.
7:11 AM 7:38 PM
New Moon, 0% visible
METAR KGSO 281554Z 30009KT 10SM SCT020 BKN090 BKN150 BKN250 20/15 A2993 RMK AO2 SLP129 T02000150

Get Severe Weather Alerts

Thanks for signing up!

Be on the lookout for a verification email in your inbox.

You'll start receiving the daily forecast at 8 AM.

×

10-Day Weather Forecast

Almanac

Astronomy

Mar. 28, 2017 Rise Set
Actual Time
Civil Twilight
Nautical Twilight
Astronomical Twilight
Moon
Length of Visible Light
Length of Day
Tomorrow will be .
, % of the Moon is Illuminated

Today's Extremes

State Highs State Lows

Community

WunderPhotos

Upload Photos

1,962,540 photos uploaded!

WunderBlog® & News

Nearby

Air Quality

  Air Quality AQ Index Pollutant
Not available.

Snow Depth

Station Depth Elevation

Earthquake Activity

City Distance Mag. Time & Date
Minimum magnitude displayed is 2.5.

Earthquake Activity

City Distance Mag. Time & Date
Minimum magnitude displayed is 2.5.

Coastal Water Temperatures

Place Temperature

Stations

Nearby Weather Stations

Station Location Temp. Windchill Dew Point Humidity Wind Precip. Elev Updated Type
                   

Watches & Warnings

There are currently no watches in effect.